Time;durP1;ratioP1;P1;durP2;ratioP2;P2;SDS_P1;SDS_P2;PMS_P1;PMS_P2;Temp;Humidity;BMP_temperature;BMP_pressure;BME280_temperature;BME280_humidity;BME280_pressure;Samples;Min_cycle;Max_cycle;Signal;HPM_P1;HPM_P2
2022/09/30 00:00:04;;;;;;;2.00;1.80;;;;;;;;;;5065077;28;20206;-62
2022/09/30 00:02:32;;;;;;;3.57;2.10;;;;;;;;;;5065439;28;20297;-61
2022/09/30 00:05:00;;;;;;;2.40;1.83;;;;;;;;;;5063142;28;20301;-62
2022/09/30 00:07:28;;;;;;;3.13;1.53;;;;;;;;;;5068676;28;20199;-62
2022/09/30 00:09:56;;;;;;;4.77;1.70;;;;;;;;;;5071135;28;20581;-62
2022/09/30 00:12:26;;;;;;;2.40;1.40;;;;;;;;;;5074490;28;20659;-62
2022/09/30 00:14:54;;;;;;;2.37;1.90;;;;;;;;;;5069921;28;20223;-62
2022/09/30 00:17:23;;;;;;;1.40;1.20;;;;;;;;;;5072480;28;20222;-62
2022/09/30 00:19:51;;;;;;;1.97;1.77;;;;;;;;;;5071832;28;20285;-62
2022/09/30 00:22:19;;;;;;;1.50;1.37;;;;;;;;;;5071509;28;20198;-62
2022/09/30 00:24:47;;;;;;;1.80;1.47;;;;;;;;;;5062969;28;20219;-62
2022/09/30 00:27:17;;;;;;;1.40;1.30;;;;;;;;;;5077764;28;20202;-62
2022/09/30 00:29:45;;;;;;;2.20;1.50;;;;;;;;;;5080207;28;20198;-62
2022/09/30 00:32:12;;;;;;;3.40;1.63;;;;;;;;;;5070959;28;20214;-62
2022/09/30 00:34:43;;;;;;;2.87;1.77;;;;;;;;;;5074786;28;20218;-62
2022/09/30 00:37:13;;;;;;;4.03;1.67;;;;;;;;;;5067924;28;20229;-62
2022/09/30 00:39:41;;;;;;;2.90;1.90;;;;;;;;;;5079296;28;20673;-62
2022/09/30 00:42:13;;;;;;;3.43;1.63;;;;;;;;;;5071720;28;20214;-61
2022/09/30 00:44:45;;;;;;;6.60;1.93;;;;;;;;;;5060798;28;20219;-62
2022/09/30 00:47:22;;;;;;;1.93;1.40;;;;;;;;;;5076235;28;20208;-62
2022/09/30 00:49:51;;;;;;;2.80;1.90;;;;;;;;;;5060997;28;20209;-62
2022/09/30 00:52:19;;;;;;;1.97;1.73;;;;;;;;;;5060285;28;20213;-62
2022/09/30 00:54:47;;;;;;;1.77;1.63;;;;;;;;;;5063453;28;20222;-62
2022/09/30 00:57:15;;;;;;;2.40;2.10;;;;;;;;;;5070834;28;20241;-62
2022/09/30 00:59:46;;;;;;;4.17;1.60;;;;;;;;;;5078929;28;20232;-62
2022/09/30 01:02:14;;;;;;;2.60;1.93;;;;;;;;;;5073514;28;20207;-62
2022/09/30 01:04:43;;;;;;;3.90;2.10;;;;;;;;;;5059852;28;20226;-62
2022/09/30 01:07:13;;;;;;;2.90;1.63;;;;;;;;;;5064883;28;20198;-62
2022/09/30 01:09:43;;;;;;;3.37;1.87;;;;;;;;;;5068552;28;20203;-62
2022/09/30 01:12:12;;;;;;;3.87;2.10;;;;;;;;;;5059624;28;20225;-61
2022/09/30 01:14:40;;;;;;;3.53;1.63;;;;;;;;;;5067373;28;20223;-61
2022/09/30 01:17:10;;;;;;;1.67;1.57;;;;;;;;;;5061705;28;20224;-61
2022/09/30 01:20:02;;;;;;;2.53;1.63;;;;;;;;;;5063852;28;20206;-62
2022/09/30 01:22:39;;;;;;;2.13;1.90;;;;;;;;;;5061544;28;20203;-62
2022/09/30 01:25:18;;;;;;;1.83;1.60;;;;;;;;;;5068753;28;20313;-62
2022/09/30 01:28:07;;;;;;;6.17;1.77;;;;;;;;;;5078516;28;20205;-61
2022/09/30 01:30:48;;;;;;;3.03;1.37;;;;;;;;;;5066647;28;20202;-62
2022/09/30 01:33:21;;;;;;;3.07;1.43;;;;;;;;;;5060325;28;20589;-62
2022/09/30 01:35:59;;;;;;;2.90;1.80;;;;;;;;;;5059113;28;20650;-62
2022/09/30 01:38:28;;;;;;;1.87;1.40;;;;;;;;;;5070002;28;20229;-62
2022/09/30 01:41:01;;;;;;;3.40;1.60;;;;;;;;;;5072003;28;20210;-62
2022/09/30 01:43:34;;;;;;;2.67;1.50;;;;;;;;;;5065816;28;20229;-61
2022/09/30 01:46:07;;;;;;;1.60;1.37;;;;;;;;;;5073830;28;20202;-62
2022/09/30 01:48:38;;;;;;;3.30;1.83;;;;;;;;;;5069529;28;20203;-61
2022/09/30 01:51:07;;;;;;;2.60;1.40;;;;;;;;;;5070989;28;20927;-61
2022/09/30 01:53:38;;;;;;;1.50;1.20;;;;;;;;;;5066721;28;20222;-61
2022/09/30 01:56:08;;;;;;;3.73;1.60;;;;;;;;;;5072530;28;20705;-61
2022/09/30 01:58:40;;;;;;;4.33;1.23;;;;;;;;;;5061837;28;20226;-61
2022/09/30 02:01:13;;;;;;;2.50;1.47;;;;;;;;;;5072056;28;20207;-61
2022/09/30 02:03:44;;;;;;;4.70;2.40;;;;;;;;;;5073752;28;20313;-63
2022/09/30 02:06:14;;;;;;;1.63;1.53;;;;;;;;;;5069804;28;20202;-63
2022/09/30 02:08:45;;;;;;;2.20;1.73;;;;;;;;;;5067191;28;20198;-64
2022/09/30 02:11:14;;;;;;;1.77;1.30;;;;;;;;;;5058740;28;20198;-64
2022/09/30 02:13:45;;;;;;;5.40;1.63;;;;;;;;;;5066657;28;20228;-63
2022/09/30 02:16:16;;;;;;;1.67;1.57;;;;;;;;;;5066719;28;20214;-63
2022/09/30 02:18:47;;;;;;;2.60;1.20;;;;;;;;;;5074260;28;20256;-63
2022/09/30 02:21:19;;;;;;;2.50;1.50;;;;;;;;;;5064232;28;20276;-63
2022/09/30 02:23:48;;;;;;;1.80;1.17;;;;;;;;;;5067842;28;20225;-63
2022/09/30 02:26:18;;;;;;;1.40;1.30;;;;;;;;;;5072151;28;20220;-63
2022/09/30 02:28:49;;;;;;;1.80;1.50;;;;;;;;;;5067658;28;20221;-61
2022/09/30 02:31:22;;;;;;;1.70;1.60;;;;;;;;;;5058508;28;20662;-61
2022/09/30 02:33:53;;;;;;;2.00;1.30;;;;;;;;;;5074189;28;20284;-61
2022/09/30 02:36:24;;;;;;;1.87;1.20;;;;;;;;;;5063503;28;20673;-61
2022/09/30 02:38:55;;;;;;;1.83;1.40;;;;;;;;;;5068249;28;20277;-63
2022/09/30 02:41:25;;;;;;;2.63;1.23;;;;;;;;;;5063779;28;20203;-64
2022/09/30 02:43:54;;;;;;;2.23;1.30;;;;;;;;;;5074448;28;20229;-62
2022/09/30 02:46:26;;;;;;;1.40;1.20;;;;;;;;;;5063074;28;20229;-61
2022/09/30 02:48:59;;;;;;;2.07;1.13;;;;;;;;;;5068763;28;20199;-63
2022/09/30 02:51:32;;;;;;;1.87;1.20;;;;;;;;;;5076706;28;20209;-63
2022/09/30 02:54:03;;;;;;;1.70;1.03;;;;;;;;;;5067437;28;20219;-63
2022/09/30 02:56:38;;;;;;;3.30;1.30;;;;;;;;;;5063480;28;20241;-63
2022/09/30 02:59:06;;;;;;;2.23;1.33;;;;;;;;;;5068601;28;20218;-63
2022/09/30 03:01:40;;;;;;;1.20;1.20;;;;;;;;;;5069024;28;20562;-63
2022/09/30 03:04:10;;;;;;;3.33;1.50;;;;;;;;;;5070379;28;20233;-62
2022/09/30 03:06:38;;;;;;;2.53;1.30;;;;;;;;;;5070081;28;20663;-63
2022/09/30 03:09:08;;;;;;;1.97;1.57;;;;;;;;;;5067090;28;20205;-63
2022/09/30 03:11:36;;;;;;;3.30;1.50;;;;;;;;;;5067377;28;20286;-63
2022/09/30 03:14:11;;;;;;;1.53;1.20;;;;;;;;;;5065664;28;20240;-63
2022/09/30 03:16:53;;;;;;;2.73;1.20;;;;;;;;;;5063013;28;20206;-63
2022/09/30 03:19:27;;;;;;;1.50;1.00;;;;;;;;;;5068027;28;20234;-63
2022/09/30 03:22:03;;;;;;;3.03;1.30;;;;;;;;;;5069479;28;20199;-63
2022/09/30 03:24:37;;;;;;;3.30;1.37;;;;;;;;;;5053299;28;20577;-63
2022/09/30 03:27:11;;;;;;;10.27;1.33;;;;;;;;;;5065529;28;20199;-63
2022/09/30 03:29:44;;;;;;;1.20;1.10;;;;;;;;;;5070491;28;20197;-63
2022/09/30 03:32:20;;;;;;;1.30;1.20;;;;;;;;;;5068258;28;20202;-63
2022/09/30 03:34:56;;;;;;;2.17;1.20;;;;;;;;;;5063590;28;20218;-63
2022/09/30 03:37:29;;;;;;;3.37;1.53;;;;;;;;;;5057595;28;20214;-63
2022/09/30 03:39:59;;;;;;;2.50;1.73;;;;;;;;;;5066027;28;20222;-63
2022/09/30 03:42:29;;;;;;;1.70;1.60;;;;;;;;;;5078005;28;20206;-63
2022/09/30 03:45:01;;;;;;;3.43;2.17;;;;;;;;;;5061388;28;20241;-62
2022/09/30 03:47:31;;;;;;;2.67;1.80;;;;;;;;;;5069797;28;20214;-62
2022/09/30 03:50:01;;;;;;;2.03;1.73;;;;;;;;;;5069125;28;20598;-62
2022/09/30 03:52:31;;;;;;;2.97;1.80;;;;;;;;;;5070187;28;20670;-62
2022/09/30 03:55:00;;;;;;;3.77;1.80;;;;;;;;;;5075256;28;20230;-62
2022/09/30 03:57:29;;;;;;;5.00;1.70;;;;;;;;;;5076701;28;20234;-62
2022/09/30 03:59:57;;;;;;;2.03;1.60;;;;;;;;;;5063814;28;20748;-62
2022/09/30 04:02:25;;;;;;;2.90;1.50;;;;;;;;;;5061503;28;20195;-62
2022/09/30 04:04:55;;;;;;;1.60;1.37;;;;;;;;;;5062469;28;20219;-62
2022/09/30 04:07:23;;;;;;;1.73;1.63;;;;;;;;;;5062832;28;20281;-63
2022/09/30 04:09:51;;;;;;;1.70;1.60;;;;;;;;;;5058619;28;20210;-63
2022/09/30 04:12:19;;;;;;;2.40;2.20;;;;;;;;;;5066976;28;20203;-62
2022/09/30 04:14:47;;;;;;;2.07;1.93;;;;;;;;;;5063622;28;20232;-63
2022/09/30 04:17:14;;;;;;;5.77;2.30;;;;;;;;;;5062076;28;20199;-63
2022/09/30 04:19:42;;;;;;;7.13;2.00;;;;;;;;;;5066894;28;20222;-63
2022/09/30 04:22:12;;;;;;;5.37;2.10;;;;;;;;;;5067997;28;20224;-62
2022/09/30 04:24:40;;;;;;;1.83;1.60;;;;;;;;;;5068618;28;20226;-63
2022/09/30 04:27:08;;;;;;;2.97;2.13;;;;;;;;;;5067201;28;20574;-63
2022/09/30 04:29:36;;;;;;;1.67;1.57;;;;;;;;;;5069190;28;20217;-63
2022/09/30 04:32:03;;;;;;;2.53;1.77;;;;;;;;;;5067048;28;20205;-63
2022/09/30 04:34:31;;;;;;;3.53;2.33;;;;;;;;;;5071315;28;20225;-63
2022/09/30 04:36:59;;;;;;;2.07;1.87;;;;;;;;;;5067677;28;20207;-63
2022/09/30 04:39:29;;;;;;;2.50;2.30;;;;;;;;;;5070601;28;20215;-62
2022/09/30 04:41:57;;;;;;;4.60;2.00;;;;;;;;;;5072512;28;20210;-63
2022/09/30 04:44:26;;;;;;;2.13;1.83;;;;;;;;;;5069600;28;20592;-63
2022/09/30 04:46:56;;;;;;;2.80;1.80;;;;;;;;;;5066004;28;20202;-62
2022/09/30 04:49:24;;;;;;;3.17;2.40;;;;;;;;;;5067273;28;20195;-63
2022/09/30 04:51:51;;;;;;;2.63;1.90;;;;;;;;;;5068223;28;20669;-63
2022/09/30 04:54:19;;;;;;;2.93;2.07;;;;;;;;;;5068823;28;20218;-63
2022/09/30 04:56:49;;;;;;;2.80;1.63;;;;;;;;;;5066907;28;20223;-63
2022/09/30 04:59:17;;;;;;;2.57;1.97;;;;;;;;;;5067091;28;20218;-63
2022/09/30 05:01:45;;;;;;;4.90;2.23;;;;;;;;;;5063812;28;20195;-63
2022/09/30 05:04:15;;;;;;;3.63;2.20;;;;;;;;;;5058985;28;20230;-63
2022/09/30 05:06:43;;;;;;;1.97;1.87;;;;;;;;;;5059900;28;20203;-62
2022/09/30 05:09:10;;;;;;;5.40;1.97;;;;;;;;;;5063425;28;20225;-62
2022/09/30 05:11:41;;;;;;;3.07;2.00;;;;;;;;;;5060124;28;20207;-62
2022/09/30 05:14:10;;;;;;;2.90;1.97;;;;;;;;;;5060239;28;20686;-61
2022/09/30 05:16:38;;;;;;;2.83;2.10;;;;;;;;;;5065930;28;20562;-62
2022/09/30 05:19:06;;;;;;;3.90;2.63;;;;;;;;;;5077695;28;20281;-62
2022/09/30 05:21:34;;;;;;;3.47;2.23;;;;;;;;;;5072860;28;20202;-61
2022/09/30 05:24:02;;;;;;;2.93;2.43;;;;;;;;;;5069529;28;20222;-62
2022/09/30 05:26:30;;;;;;;2.73;2.47;;;;;;;;;;5059790;28;20207;-62
2022/09/30 05:28:58;;;;;;;4.13;2.70;;;;;;;;;;5067323;28;20208;-62
2022/09/30 05:31:27;;;;;;;3.93;2.40;;;;;;;;;;5065983;28;20202;-62
2022/09/30 05:33:55;;;;;;;5.63;2.73;;;;;;;;;;5074475;28;20625;-61
2022/09/30 05:36:25;;;;;;;3.13;2.50;;;;;;;;;;5058867;28;20257;-62
2022/09/30 05:38:53;;;;;;;3.83;2.57;;;;;;;;;;5060308;28;20199;-62
2022/09/30 05:41:21;;;;;;;4.90;3.67;;;;;;;;;;5069476;28;20719;-61
2022/09/30 05:43:49;;;;;;;5.57;2.93;;;;;;;;;;5072044;28;20223;-62
2022/09/30 05:46:17;;;;;;;6.60;3.10;;;;;;;;;;5073603;28;20202;-62
2022/09/30 05:48:47;;;;;;;5.17;3.33;;;;;;;;;;5070541;28;20542;-62
2022/09/30 05:51:15;;;;;;;5.30;3.10;;;;;;;;;;5067848;28;20213;-63
2022/09/30 05:53:43;;;;;;;4.83;3.83;;;;;;;;;;5063426;28;20327;-62
2022/09/30 05:56:11;;;;;;;4.90;3.70;;;;;;;;;;5065558;28;20245;-61
2022/09/30 05:58:40;;;;;;;5.27;4.13;;;;;;;;;;5065838;28;20209;-61
2022/09/30 06:01:09;;;;;;;7.60;3.57;;;;;;;;;;5062093;28;20226;-61
2022/09/30 06:03:41;;;;;;;5.07;3.97;;;;;;;;;;5063746;28;20298;-61
2022/09/30 06:06:10;;;;;;;5.17;4.23;;;;;;;;;;5061164;28;20207;-61
2022/09/30 06:08:39;;;;;;;6.90;4.50;;;;;;;;;;5056450;28;20195;-61
2022/09/30 06:11:11;;;;;;;4.67;3.83;;;;;;;;;;5066504;28;20252;-61
2022/09/30 06:13:40;;;;;;;6.57;4.57;;;;;;;;;;5067742;28;20218;-61
2022/09/30 06:16:08;;;;;;;5.27;4.20;;;;;;;;;;5048002;28;20291;-62
2022/09/30 06:18:37;;;;;;;8.47;4.43;;;;;;;;;;5057314;28;20310;-62
2022/09/30 06:21:06;;;;;;;5.30;4.27;;;;;;;;;;5049201;28;20230;-62
2022/09/30 06:23:35;;;;;;;10.00;7.70;;;;;;;;;;5058230;28;20270;-63
2022/09/30 06:26:04;;;;;;;8.50;4.93;;;;;;;;;;5058064;28;20199;-62
2022/09/30 06:28:34;;;;;;;4.10;3.70;;;;;;;;;;5057827;28;20215;-63
2022/09/30 06:31:02;;;;;;;6.53;3.83;;;;;;;;;;5056187;28;20674;-63
2022/09/30 06:33:30;;;;;;;7.50;3.97;;;;;;;;;;5048649;28;20239;-63
2022/09/30 06:36:03;;;;;;;5.17;4.17;;;;;;;;;;5056702;28;20196;-64
2022/09/30 06:38:31;;;;;;;7.73;4.30;;;;;;;;;;5050657;28;20210;-63
2022/09/30 06:41:00;;;;;;;4.57;3.70;;;;;;;;;;5054367;28;20716;-64
2022/09/30 06:43:29;;;;;;;4.97;3.57;;;;;;;;;;5050479;28;20695;-63
2022/09/30 06:46:07;;;;;;;4.70;3.47;;;;;;;;;;5052597;28;20290;-63
2022/09/30 06:48:45;;;;;;;6.77;3.63;;;;;;;;;;5057569;28;20202;-63
2022/09/30 06:51:13;;;;;;;6.03;4.03;;;;;;;;;;5053860;28;20199;-63
2022/09/30 06:53:42;;;;;;;3.80;3.30;;;;;;;;;;5050208;28;20219;-63
2022/09/30 06:56:11;;;;;;;4.23;3.10;;;;;;;;;;5057529;28;20237;-63
2022/09/30 06:58:40;;;;;;;4.90;3.10;;;;;;;;;;5066081;28;20213;-64
2022/09/30 07:01:08;;;;;;;4.83;3.87;;;;;;;;;;5053285;28;20222;-63
2022/09/30 07:03:36;;;;;;;6.17;3.50;;;;;;;;;;5064081;28;20724;-64
2022/09/30 07:06:05;;;;;;;4.53;2.83;;;;;;;;;;5060627;28;20198;-64
2022/09/30 07:08:34;;;;;;;4.33;3.20;;;;;;;;;;5070074;28;20203;-63
2022/09/30 07:11:03;;;;;;;8.43;3.83;;;;;;;;;;5070780;28;20209;-63
2022/09/30 07:13:33;;;;;;;4.47;3.37;;;;;;;;;;5056898;28;20702;-63
2022/09/30 07:16:01;;;;;;;7.93;3.30;;;;;;;;;;5062738;28;20199;-63
2022/09/30 07:18:29;;;;;;;11.47;3.43;;;;;;;;;;5062921;28;20213;-63
2022/09/30 07:20:57;;;;;;;6.57;2.77;;;;;;;;;;5065240;28;20224;-63
2022/09/30 07:23:25;;;;;;;5.00;2.70;;;;;;;;;;5062277;28;20226;-63
2022/09/30 07:25:55;;;;;;;10.97;3.37;;;;;;;;;;5059745;28;20211;-64
2022/09/30 07:28:26;;;;;;;3.63;3.13;;;;;;;;;;5062287;28;20198;-64
2022/09/30 07:30:56;;;;;;;2.53;2.27;;;;;;;;;;5060840;28;20207;-63
2022/09/30 07:33:44;;;;;;;3.53;2.77;;;;;;;;;;5066781;28;20232;-64
2022/09/30 07:36:17;;;;;;;6.07;2.60;;;;;;;;;;5067795;28;20202;-61
2022/09/30 07:38:46;;;;;;;5.47;2.90;;;;;;;;;;5068038;28;20202;-63
2022/09/30 07:41:15;;;;;;;6.47;2.83;;;;;;;;;;5075797;28;20237;-63
2022/09/30 07:43:44;;;;;;;3.30;2.87;;;;;;;;;;5061362;28;20223;-64
2022/09/30 07:46:15;;;;;;;3.37;2.87;;;;;;;;;;5059761;28;20195;-63
2022/09/30 07:48:46;;;;;;;5.33;2.83;;;;;;;;;;5069317;28;20203;-63
2022/09/30 07:51:15;;;;;;;3.17;2.40;;;;;;;;;;5064805;28;20203;-63
2022/09/30 07:53:44;;;;;;;6.07;2.47;;;;;;;;;;5064533;28;20222;-64
2022/09/30 07:56:13;;;;;;;10.17;2.80;;;;;;;;;;5056788;28;20235;-63
2022/09/30 07:58:41;;;;;;;5.77;2.60;;;;;;;;;;5064331;28;20661;-63
2022/09/30 08:01:09;;;;;;;3.57;2.50;;;;;;;;;;5064186;28;20352;-63
2022/09/30 08:03:40;;;;;;;4.07;2.30;;;;;;;;;;5063348;28;20217;-63
2022/09/30 08:06:09;;;;;;;4.13;2.97;;;;;;;;;;5070965;28;20202;-64
2022/09/30 08:08:38;;;;;;;3.77;2.77;;;;;;;;;;5055435;28;20203;-63
2022/09/30 08:11:06;;;;;;;3.83;2.50;;;;;;;;;;5055334;28;20845;-63
2022/09/30 08:13:34;;;;;;;3.67;2.00;;;;;;;;;;5061800;28;20250;-64
2022/09/30 08:16:02;;;;;;;2.83;2.03;;;;;;;;;;5060961;28;20284;-64
2022/09/30 08:18:30;;;;;;;2.67;2.37;;;;;;;;;;5068218;28;20336;-62
2022/09/30 08:21:01;;;;;;;1.47;1.37;;;;;;;;;;5067935;28;20218;-62
2022/09/30 08:23:30;;;;;;;2.00;1.67;;;;;;;;;;5071367;28;20227;-62
2022/09/30 08:26:01;;;;;;;2.07;1.50;;;;;;;;;;5063915;28;20199;-63
2022/09/30 08:28:30;;;;;;;1.83;1.30;;;;;;;;;;5054923;28;20204;-62
2022/09/30 08:31:05;;;;;;;1.50;1.40;;;;;;;;;;5073026;28;20199;-62
2022/09/30 08:33:33;;;;;;;5.37;1.77;;;;;;;;;;5069507;28;20233;-63
2022/09/30 08:36:03;;;;;;;1.90;1.80;;;;;;;;;;5073809;28;20194;-62
2022/09/30 08:38:31;;;;;;;2.07;1.90;;;;;;;;;;5071019;28;20611;-62
2022/09/30 08:41:05;;;;;;;1.80;1.70;;;;;;;;;;5080117;28;20600;-62
2022/09/30 08:43:38;;;;;;;2.30;1.67;;;;;;;;;;5080653;28;20230;-62
2022/09/30 08:46:09;;;;;;;1.97;1.77;;;;;;;;;;5080278;28;20202;-62
2022/09/30 08:48:40;;;;;;;1.70;1.60;;;;;;;;;;5079575;28;20198;-64
2022/09/30 08:51:15;;;;;;;2.17;2.07;;;;;;;;;;5070814;28;20677;-62
2022/09/30 08:53:45;;;;;;;2.60;1.77;;;;;;;;;;5066312;28;20562;-62
2022/09/30 08:56:19;;;;;;;2.30;2.10;;;;;;;;;;5075927;28;20230;-62
2022/09/30 08:58:49;;;;;;;2.90;1.73;;;;;;;;;;5071132;28;20197;-63
2022/09/30 09:01:19;;;;;;;2.10;1.90;;;;;;;;;;5069729;28;20218;-63
2022/09/30 09:03:47;;;;;;;1.93;1.60;;;;;;;;;;5060133;28;20586;-63
2022/09/30 09:06:21;;;;;;;1.83;1.60;;;;;;;;;;5070667;28;20206;-62
2022/09/30 09:09:04;;;;;;;3.87;1.93;;;;;;;;;;5079333;28;20220;-63
2022/09/30 09:11:39;;;;;;;2.60;1.67;;;;;;;;;;5071101;28;20232;-62
2022/09/30 09:14:20;;;;;;;2.10;1.70;;;;;;;;;;5071113;28;20611;-62
2022/09/30 09:16:54;;;;;;;2.70;1.80;;;;;;;;;;5078746;28;20209;-63
2022/09/30 09:19:25;;;;;;;4.10;2.10;;;;;;;;;;5077848;28;20555;-64
2022/09/30 09:21:56;;;;;;;2.63;1.80;;;;;;;;;;5066962;28;20590;-64
2022/09/30 09:24:24;;;;;;;2.03;1.60;;;;;;;;;;5063449;28;20250;-65
2022/09/30 09:26:53;;;;;;;1.77;1.53;;;;;;;;;;5079014;28;20562;-64
2022/09/30 09:29:39;;;;;;;5.07;1.90;;;;;;;;;;5070717;28;20218;-64
2022/09/30 09:32:12;;;;;;;4.47;2.37;;;;;;;;;;5061419;28;20198;-64
2022/09/30 09:34:41;;;;;;;3.40;1.67;;;;;;;;;;5067245;28;20567;-64
2022/09/30 09:37:14;;;;;;;1.97;1.83;;;;;;;;;;5066351;28;20209;-64
2022/09/30 09:39:49;;;;;;;2.37;2.00;;;;;;;;;;5062458;28;20209;-64
2022/09/30 09:42:26;;;;;;;3.03;1.97;;;;;;;;;;5071163;28;20237;-62
2022/09/30 09:44:59;;;;;;;2.67;1.67;;;;;;;;;;5070828;28;20751;-62
2022/09/30 09:47:26;;;;;;;1.50;1.40;;;;;;;;;;5069792;28;20202;-62
2022/09/30 09:49:56;;;;;;;1.70;1.60;;;;;;;;;;5073716;28;20214;-62
2022/09/30 09:52:48;;;;;;;2.43;1.80;;;;;;;;;;5058819;28;20562;-62
2022/09/30 09:55:21;;;;;;;3.20;1.80;;;;;;;;;;5044227;28;20223;-62
2022/09/30 09:58:04;;;;;;;2.23;1.73;;;;;;;;;;5076681;28;20202;-61
2022/09/30 10:03:36;;;;;;;2.40;1.77;;;;;;;;;;5065574;28;20700;-64
2022/09/30 10:06:06;;;;;;;2.33;1.80;;;;;;;;;;5066403;28;20290;-64
2022/09/30 10:08:35;;;;;;;1.70;1.40;;;;;;;;;;5077581;28;20206;-64
2022/09/30 10:11:06;;;;;;;3.47;1.50;;;;;;;;;;5057397;28;20542;-64
2022/09/30 10:13:41;;;;;;;2.40;1.90;;;;;;;;;;5058549;28;20215;-62
2022/09/30 10:16:25;;;;;;;1.50;1.40;;;;;;;;;;5051708;28;20207;-62
2022/09/30 10:18:54;;;;;;;3.00;1.80;;;;;;;;;;5064266;28;20209;-63
2022/09/30 10:21:22;;;;;;;7.47;2.80;;;;;;;;;;5056541;28;20217;-62
2022/09/30 10:23:50;;;;;;;3.23;1.60;;;;;;;;;;5056710;28;20222;-64
2022/09/30 10:26:20;;;;;;;2.00;1.80;;;;;;;;;;5055947;28;20202;-62
2022/09/30 10:28:49;;;;;;;1.80;1.70;;;;;;;;;;5058539;28;20253;-63
2022/09/30 10:31:22;;;;;;;3.43;1.73;;;;;;;;;;5060170;28;20194;-64
2022/09/30 10:33:54;;;;;;;1.60;1.40;;;;;;;;;;5062650;28;20214;-62
2022/09/30 10:36:23;;;;;;;1.93;1.50;;;;;;;;;;5061011;28;20568;-63
2022/09/30 10:38:57;;;;;;;2.97;1.80;;;;;;;;;;5072705;28;20198;-64
2022/09/30 10:41:33;;;;;;;2.60;1.47;;;;;;;;;;5057705;28;20253;-62
2022/09/30 10:44:02;;;;;;;1.50;1.40;;;;;;;;;;5057756;28;20222;-63
2022/09/30 10:46:31;;;;;;;2.20;1.50;;;;;;;;;;5074058;28;20214;-62
2022/09/30 10:49:00;;;;;;;7.87;1.73;;;;;;;;;;5072205;28;20207;-63
2022/09/30 10:51:30;;;;;;;1.80;1.50;;;;;;;;;;5074621;28;20207;-62
2022/09/30 10:53:58;;;;;;;2.23;1.20;;;;;;;;;;5071000;28;20317;-62
2022/09/30 10:56:36;;;;;;;1.93;1.30;;;;;;;;;;5059678;28;20610;-63
2022/09/30 10:59:06;;;;;;;1.60;1.43;;;;;;;;;;5077232;28;20277;-63
2022/09/30 11:01:36;;;;;;;2.43;1.30;;;;;;;;;;5059414;28;20206;-62
2022/09/30 11:04:06;;;;;;;2.07;1.50;;;;;;;;;;5062618;28;20218;-63
2022/09/30 11:06:40;;;;;;;1.57;1.33;;;;;;;;;;5065027;28;20207;-62
2022/09/30 11:09:11;;;;;;;3.17;1.23;;;;;;;;;;5065642;28;20209;-63
2022/09/30 11:11:43;;;;;;;3.87;1.17;;;;;;;;;;5059501;28;20206;-61
2022/09/30 11:14:20;;;;;;;1.23;1.20;;;;;;;;;;5062895;28;20223;-61
2022/09/30 11:16:52;;;;;;;1.43;1.20;;;;;;;;;;5057213;28;20210;-63
2022/09/30 11:19:23;;;;;;;11.77;1.80;;;;;;;;;;5057098;28;20207;-63
2022/09/30 11:21:55;;;;;;;2.40;1.70;;;;;;;;;;5065245;28;20203;-64
2022/09/30 11:24:28;;;;;;;1.50;1.40;;;;;;;;;;5064818;28;20231;-62
2022/09/30 11:27:02;;;;;;;2.73;1.40;;;;;;;;;;5067714;28;20198;-60
2022/09/30 11:29:36;;;;;;;3.00;1.30;;;;;;;;;;5071564;28;20198;-63
2022/09/30 11:32:08;;;;;;;4.97;1.33;;;;;;;;;;5073472;28;20220;-61
2022/09/30 11:34:43;;;;;;;2.73;1.40;;;;;;;;;;5063669;28;20226;-61
2022/09/30 11:37:17;;;;;;;4.53;1.40;;;;;;;;;;5065931;28;20535;-61
2022/09/30 11:39:51;;;;;;;1.43;1.20;;;;;;;;;;5070934;28;20195;-61
2022/09/30 11:42:23;;;;;;;1.10;1.00;;;;;;;;;;5064696;28;20210;-61
2022/09/30 11:44:55;;;;;;;1.07;1.07;;;;;;;;;;5065306;28;20218;-61
2022/09/30 11:47:29;;;;;;;2.23;1.20;;;;;;;;;;5057003;28;20226;-61
2022/09/30 11:50:03;;;;;;;2.07;1.20;;;;;;;;;;5065209;28;20206;-61
2022/09/30 11:52:35;;;;;;;1.00;1.00;;;;;;;;;;5058773;28;20205;-62
2022/09/30 11:55:10;;;;;;;2.67;1.43;;;;;;;;;;5050536;28;20214;-63
2022/09/30 11:57:48;;;;;;;1.77;1.30;;;;;;;;;;5056270;28;20270;-64
2022/09/30 12:00:20;;;;;;;2.03;0.97;;;;;;;;;;5049916;28;20266;-65
2022/09/30 12:02:50;;;;;;;1.03;1.03;;;;;;;;;;5060984;28;20221;-65
2022/09/30 12:05:23;;;;;;;4.10;1.20;;;;;;;;;;5061922;28;20253;-65
2022/09/30 12:07:53;;;;;;;1.00;1.00;;;;;;;;;;5059924;28;20207;-65
2022/09/30 12:10:23;;;;;;;1.17;1.13;;;;;;;;;;5060889;28;20570;-65
2022/09/30 12:12:54;;;;;;;0.90;0.90;;;;;;;;;;5057206;28;20191;-65
2022/09/30 12:15:25;;;;;;;1.37;1.17;;;;;;;;;;5059078;28;20203;-65
2022/09/30 12:17:57;;;;;;;1.63;1.13;;;;;;;;;;5058818;28;20214;-65
2022/09/30 12:20:27;;;;;;;2.30;0.80;;;;;;;;;;5059790;28;20241;-65
2022/09/30 12:22:57;;;;;;;1.10;0.83;;;;;;;;;;5058218;28;20250;-65
2022/09/30 12:25:28;;;;;;;0.73;0.73;;;;;;;;;;5056814;28;20565;-65
2022/09/30 12:30:15;;;;;;;1.07;0.97;;;;;;;;;;5059389;28;20204;-65
2022/09/30 12:30:59;;;;;;;1.13;0.90;;;;;;;;;;5049512;28;20221;-65
2022/09/30 12:33:32;;;;;;;1.53;0.83;;;;;;;;;;5053780;28;20221;-65
2022/09/30 12:36:14;;;;;;;3.57;0.90;;;;;;;;;;5058165;28;20209;-65
2022/09/30 12:39:02;;;;;;;4.17;1.00;;;;;;;;;;5054451;28;20195;-65
2022/09/30 12:41:38;;;;;;;1.53;1.00;;;;;;;;;;5051899;28;20199;-65
2022/09/30 12:44:16;;;;;;;2.60;0.80;;;;;;;;;;5054029;28;20583;-66
2022/09/30 12:46:52;;;;;;;2.00;0.90;;;;;;;;;;5057135;28;20203;-65
2022/09/30 12:49:22;;;;;;;1.27;0.90;;;;;;;;;;5059677;28;20202;-66
2022/09/30 12:51:53;;;;;;;0.63;0.63;;;;;;;;;;5058948;28;20209;-65
2022/09/30 12:54:22;;;;;;;4.87;0.80;;;;;;;;;;5058904;28;20223;-65
2022/09/30 12:56:54;;;;;;;3.50;0.80;;;;;;;;;;5059608;28;20241;-63
2022/09/30 12:59:27;;;;;;;0.70;0.70;;;;;;;;;;5051851;28;20207;-63
2022/09/30 13:01:56;;;;;;;0.83;0.83;;;;;;;;;;5057912;28;20213;-62
2022/09/30 13:04:33;;;;;;;1.33;1.10;;;;;;;;;;5048801;28;20725;-63
2022/09/30 13:07:16;;;;;;;1.00;1.00;;;;;;;;;;5057644;28;20230;-62
2022/09/30 13:09:57;;;;;;;0.90;0.90;;;;;;;;;;5053541;28;20222;-63
2022/09/30 13:12:27;;;;;;;3.03;1.00;;;;;;;;;;5054792;28;20211;-62
2022/09/30 13:15:14;;;;;;;0.70;0.70;;;;;;;;;;5059743;28;20219;-62
2022/09/30 13:17:44;;;;;;;1.20;1.03;;;;;;;;;;5054486;28;20198;-63
2022/09/30 13:20:31;;;;;;;4.53;1.30;;;;;;;;;;5066356;28;20202;-63
2022/09/30 13:22:59;;;;;;;0.80;0.80;;;;;;;;;;5057213;28;20214;-63
2022/09/30 13:25:27;;;;;;;1.33;0.73;;;;;;;;;;5056696;28;20229;-63
2022/09/30 13:28:28;;;;;;;1.10;0.70;;;;;;;;;;5059056;28;20199;-63
2022/09/30 13:31:13;;;;;;;0.80;0.80;;;;;;;;;;5026376;28;20196;-63
2022/09/30 13:33:44;;;;;;;0.93;0.70;;;;;;;;;;5029871;28;20216;-63
2022/09/30 13:36:24;;;;;;;1.80;0.83;;;;;;;;;;5048840;28;20239;-63
2022/09/30 13:39:07;;;;;;;0.80;0.80;;;;;;;;;;5053169;28;20206;-63
2022/09/30 13:41:37;;;;;;;1.43;1.33;;;;;;;;;;5048819;28;20213;-63
2022/09/30 13:44:09;;;;;;;0.80;0.80;;;;;;;;;;5058659;28;20310;-63
2022/09/30 13:46:41;;;;;;;0.80;0.80;;;;;;;;;;5058571;28;20202;-63
2022/09/30 13:49:14;;;;;;;1.53;0.80;;;;;;;;;;5057504;28;20202;-63
2022/09/30 13:51:42;;;;;;;2.20;1.23;;;;;;;;;;5056444;28;20237;-63
2022/09/30 13:54:14;;;;;;;0.80;0.80;;;;;;;;;;5058684;28;20769;-63
2022/09/30 13:56:43;;;;;;;4.53;1.10;;;;;;;;;;5058645;28;20230;-63
2022/09/30 13:59:20;;;;;;;0.97;0.97;;;;;;;;;;5063258;28;20201;-63
2022/09/30 14:01:56;;;;;;;0.83;0.70;;;;;;;;;;5066505;28;20780;-63
2022/09/30 14:04:35;;;;;;;1.60;1.07;;;;;;;;;;5067351;28;20677;-63
2022/09/30 14:07:09;;;;;;;2.70;1.33;;;;;;;;;;5074544;28;20685;-63
2022/09/30 14:09:52;;;;;;;1.00;0.97;;;;;;;;;;5065136;28;20293;-63
2022/09/30 14:12:34;;;;;;;1.67;0.73;;;;;;;;;;5056475;28;20285;-63
2022/09/30 14:15:21;;;;;;;1.73;1.00;;;;;;;;;;5056408;28;20223;-63
2022/09/30 14:17:53;;;;;;;0.90;0.63;;;;;;;;;;5066541;28;20206;-63
2022/09/30 14:20:29;;;;;;;1.40;1.13;;;;;;;;;;5065340;28;20286;-63
2022/09/30 14:22:57;;;;;;;1.60;0.90;;;;;;;;;;5058549;28;20256;-63
2022/09/30 14:25:25;;;;;;;2.10;0.60;;;;;;;;;;5064532;28;20219;-63
2022/09/30 14:27:57;;;;;;;4.90;2.27;;;;;;;;;;5058452;28;20199;-63
2022/09/30 14:30:26;;;;;;;2.80;2.43;;;;;;;;;;5069781;28;20206;-63
2022/09/30 14:32:55;;;;;;;1.63;1.40;;;;;;;;;;5069150;28;20244;-63
2022/09/30 14:35:24;;;;;;;0.83;0.73;;;;;;;;;;5068846;28;20562;-63
2022/09/30 14:37:56;;;;;;;1.80;0.87;;;;;;;;;;5061687;28;20278;-63
2022/09/30 14:40:26;;;;;;;2.20;0.83;;;;;;;;;;5061260;28;20243;-63
2022/09/30 14:42:55;;;;;;;1.10;0.60;;;;;;;;;;5077545;28;20194;-63
2022/09/30 14:45:26;;;;;;;1.33;0.50;;;;;;;;;;5073465;28;20311;-64
2022/09/30 14:47:56;;;;;;;0.63;0.60;;;;;;;;;;5066292;28;20201;-63
2022/09/30 14:50:25;;;;;;;2.20;0.90;;;;;;;;;;5068222;28;20210;-63
2022/09/30 14:52:57;;;;;;;0.40;0.40;;;;;;;;;;5077351;28;20356;-63
2022/09/30 14:55:27;;;;;;;1.00;0.90;;;;;;;;;;5073610;28;20214;-63
2022/09/30 14:57:57;;;;;;;4.20;0.60;;;;;;;;;;5065661;28;20277;-63
2022/09/30 15:00:28;;;;;;;1.70;0.67;;;;;;;;;;5068314;28;20281;-63
2022/09/30 15:02:56;;;;;;;1.80;0.60;;;;;;;;;;5070327;28;20290;-63
2022/09/30 15:05:25;;;;;;;3.20;0.60;;;;;;;;;;5064882;28;20248;-63
2022/09/30 15:07:55;;;;;;;0.73;0.73;;;;;;;;;;5063375;28;20194;-63
2022/09/30 15:10:24;;;;;;;1.23;1.20;;;;;;;;;;5067955;28;20203;-62